Airfield :







YOU CAN JOIN US ON...

 
LOGIN :

Register | Disclaimer

   EN    FR    IT 

 









Legend :    VFR   Marginal VFR   IFR   Intensive IFR   Very Intensive IFR
Visi :
Ceiling :
>= 8 km
>= 3000ft
5 to 8 km
1000 to 3000 ft
1500m to 5 km
500 to 1000 ft
800 to 1500m
200 to 500 ft
< 800m
< 200 ft
Symbols :   Thunderstorms  Fog  Heavy snow  Heavy precipitations  Wind > 20 kt






- Airport Elevation : 118 ft
- IATA code : YUL


CYUL - Montréal - Pierre-Elliott-Trudeau Int.

CURRENT METAR :
  • 080500Z 16008KT 15SM FEW140 SCT180 BKN250 25/20 A2988 RMK AC1AC2CI2 SLP120 DENSITY ALT 1400FT

EXPIRED METARs :
  • 080400Z 17007KT 15SM FEW130 BKN220 25/19 A2988 RMK AC2CI5 SLP119 DENSITY ALT 1400FT
  • 080300Z 17009KT 15SM FEW090 SCT140 BKN220 26/19 A2988 RMK AC2AC2CI3 SLP119 DENSITY ALT 1500FT

TAF TAF CYUL
Valid from the 08 at 03:00 until the 09 at 00:00 UTC


080238Z 0803/0824 20008KT P6SM FEW060 BKN090
TEMPO 0803/0806 P6SM VCTS SCT060CB BKN090
FM080600 21010KT P6SM BKN060
TEMPO 0806/0811 P6SM -SHRA
PROB30 0806/0811 VRB15G30KT 2SM TSRA BR BKN030 OVC060CB
FM081100 22008KT P6SM FEW020 BKN040
TEMPO 0811/0815 P6SM -SHRA BKN020 BKN040
BECMG 0815/0816 24015KT
FM082000 30010KT P6SM SCT050
FM082300 33006KT P6SM FEW060 RMK NXT FCST BY 080600Z
ATIS : ENG : +1 514-633-3037 FRA : +1 514-633-3034
CZUL FIR / North America



MET'MAP, your aeronautical weather chart ! - Copyright ORBIFLY December 2007 - Disclaimer

ORBIFLY MET'MAP TEAM :

Programming & Development : Alexandra Zaïnal
Concept & original design : Baudouin d'Aumeries
Assistance for programming : Marc-Olivier Méhu
Technical & hardware support : Manuel Goepfert

Contact : metmap@orbifly.com




SOURCES & CREDITS :

   NOAA